Republic, Washington
Current Conditions -  °F | °C
As of 6:53 AM on Wednesday 22 Oct 2014 (Local Time) from KOMK Reporting Station
Moderate Rain Moderate Rain  
Wind Chill: 43°   Ceiling: 5000
Heat Index: 47°   Visibility: 9mi
Dew Point: 45°   Wind: 8mph
Humidity: 93%   Direction: 190°S
Pressure: 29.83"   Gusts: NA
Location:  48.65°N, 118.74°W
Report Text: KOMK 221353Z AUTO 19007KT 9SM RA OVC050 08/07 A2983 RMK AO2 SLP104 P0005 T00830072
Loading
Personal Weather Stations






























Interactive Weather Map
Tropical Storm Tracking
New forecast layout! Learn more

10-Day Weather Forecast

Advertisements
Track Severe Weather on mobile